KBTV/BTV METAR and TAF weather

Enter ICAO airport designator
Station Type Date Time Source
KBTV METAR 2020/08/14 15:54 UTC NOAA

KBTV 141554Z 32009KT 10SM FEW045 FEW075 SCT200 27/18 A3012 RMK AO2 SLP198 T02670178


Station Type Date Time Source
KBTV Decoded METAR 2020/08/14 15:54 UTC NOAA

BURLINGTON INTERNATIONAL, VT, United States (KBTV) 44-28N 73-09W 105M
Aug 14, 2020 - 11:54 AM EDT / 2020.08.14 1554 UTC
Wind: from the NW (320 degrees) at 10 MPH (9 KT):0
Visibility: 10 mile(s):0
Sky conditions: partly cloudy
Temperature: 80.1 F (26.7 C)
Dew Point: 64.0 F (17.8 C)
Relative Humidity: 58%
Pressure (altimeter): 30.12 in. Hg (1019 hPa)
ob: KBTV 141554Z 32009KT 10SM FEW045 FEW075 SCT200 27/18 A3012 RMK AO2 SLP198 T02670178
cycle: 16

Station Type Date Time Source
KBTV TAF 2020/08/14 12:24 UTC NOAA

TAF KBTV 141121Z 1412/1512 00000KT P6SM SCT180
FM141500 34008KT P6SM FEW150
FM150300 VRB03KT P6SM SKC

Example: see airport list